Time;durP1;ratioP1;P1;durP2;ratioP2;P2;SDS_P1;SDS_P2;PMS_P1;PMS_P2;Temp;Humidity;BMP_temperature;BMP_pressure;BME280_temperature;BME280_humidity;BME280_pressure;Samples;Min_cycle;Max_cycle;Signal;HPM_P1;HPM_P2
2022/03/03 00:01:49;;;;;;;31.67;15.05;;;;;;;2.85;66.42;101671.41;5067276;28;20405;-73
2022/03/03 00:04:16;;;;;;;29.63;16.40;;;;;;;2.84;66.53;101678.00;5060626;28;20858;-73
2022/03/03 00:06:42;;;;;;;32.00;16.45;;;;;;;2.78;66.55;101673.00;5068478;28;20139;-73
2022/03/03 00:09:10;;;;;;;29.70;15.75;;;;;;;2.67;69.36;101667.09;5064854;28;20381;-73
2022/03/03 00:11:38;;;;;;;30.60;15.35;;;;;;;2.67;69.06;101670.59;5068259;28;20076;-74
2022/03/03 00:14:04;;;;;;;29.60;15.55;;;;;;;2.72;67.79;101675.94;5060974;28;20171;-73
2022/03/03 00:16:31;;;;;;;42.67;16.45;;;;;;;2.66;67.73;101679.94;5068309;28;20055;-73
2022/03/03 00:18:59;;;;;;;31.77;16.88;;;;;;;2.61;66.83;101674.63;5065512;28;20049;-73
2022/03/03 00:21:25;;;;;;;31.20;16.48;;;;;;;2.64;69.16;101686.84;5059393;28;20044;-73
2022/03/03 00:23:52;;;;;;;29.73;15.68;;;;;;;2.55;68.08;101684.13;5062150;28;20052;-73
2022/03/03 00:26:18;;;;;;;32.58;16.10;;;;;;;2.53;68.33;101685.53;5066442;28;20091;-73
2022/03/03 00:28:45;;;;;;;33.20;16.10;;;;;;;2.54;67.34;101698.09;5065838;28;20147;-73
2022/03/03 00:31:11;;;;;;;31.75;16.70;;;;;;;2.51;68.38;101706.94;5061295;28;20048;-73
2022/03/03 00:33:38;;;;;;;31.15;16.83;;;;;;;2.46;69.98;101698.88;5067515;28;20063;-74
2022/03/03 00:36:05;;;;;;;33.13;16.67;;;;;;;2.36;70.77;101688.25;5066320;28;20136;-72
2022/03/03 00:38:31;;;;;;;36.60;17.58;;;;;;;2.28;70.36;101689.03;5065376;28;20515;-73
2022/03/03 00:40:58;;;;;;;33.15;18.13;;;;;;;2.22;70.95;101679.38;5066164;28;20160;-72
2022/03/03 00:43:25;;;;;;;33.42;16.15;;;;;;;2.29;73.76;101686.00;5068191;28;20052;-74
2022/03/03 00:45:51;;;;;;;29.30;15.93;;;;;;;2.34;72.76;101679.59;5066446;28;20143;-75
2022/03/03 00:48:18;;;;;;;31.00;16.70;;;;;;;2.23;73.28;101665.41;5064120;28;20136;-75
2022/03/03 00:50:45;;;;;;;33.03;15.95;;;;;;;2.37;72.33;101687.94;5068064;28;20055;-72
2022/03/03 00:53:11;;;;;;;34.50;15.82;;;;;;;2.37;73.25;101685.19;5064998;28;20052;-73
2022/03/03 00:55:38;;;;;;;32.85;16.70;;;;;;;2.35;71.63;101692.94;5058921;28;20059;-73
2022/03/03 00:58:04;;;;;;;32.83;16.70;;;;;;;2.33;71.43;101689.69;5065745;28;20123;-74
2022/03/03 01:00:31;;;;;;;30.23;15.88;;;;;;;2.30;71.59;101686.81;5066016;28;20044;-72
2022/03/03 01:02:58;;;;;;;30.70;16.85;;;;;;;2.28;71.94;101694.50;5065792;28;20056;-73
2022/03/03 01:05:25;;;;;;;33.28;17.40;;;;;;;2.23;71.87;101689.22;5061629;28;20072;-72
2022/03/03 01:07:52;;;;;;;34.08;17.88;;;;;;;2.21;72.02;101691.44;5065613;28;20086;-73
2022/03/03 01:10:18;;;;;;;35.30;17.73;;;;;;;2.19;71.92;101686.28;5073786;28;20079;-72
2022/03/03 01:12:45;;;;;;;37.83;17.75;;;;;;;2.15;70.94;101682.59;5068376;28;20079;-73
2022/03/03 01:15:12;;;;;;;31.38;16.63;;;;;;;2.15;70.50;101681.78;5070399;28;20139;-72
2022/03/03 01:17:38;;;;;;;34.78;17.27;;;;;;;2.11;72.16;101678.09;5070281;28;20501;-73
2022/03/03 01:20:07;;;;;;;34.92;17.10;;;;;;;2.11;72.30;101680.81;5070242;28;20476;-72
2022/03/03 01:22:34;;;;;;;33.03;16.65;;;;;;;2.08;72.47;101673.25;5068305;28;20131;-73
2022/03/03 01:25:01;;;;;;;33.75;17.42;;;;;;;2.07;71.84;101669.75;5070119;28;20135;-72
2022/03/03 01:27:29;;;;;;;34.30;16.42;;;;;;;2.08;72.93;101670.53;5070682;28;20549;-72
2022/03/03 01:29:56;;;;;;;35.03;17.75;;;;;;;2.05;73.53;101668.44;5065334;28;20445;-73
2022/03/03 01:32:22;;;;;;;35.65;17.83;;;;;;;2.04;72.54;101666.81;5069568;28;20056;-73
2022/03/03 01:34:49;;;;;;;32.78;17.58;;;;;;;2.02;74.39;101660.88;5070335;28;20906;-72
2022/03/03 01:37:16;;;;;;;28.75;16.45;;;;;;;2.00;73.57;101663.91;5070304;28;20048;-72
2022/03/03 01:39:42;;;;;;;29.88;16.58;;;;;;;1.93;74.64;101654.59;5070531;28;20126;-72
2022/03/03 01:42:09;;;;;;;32.03;16.85;;;;;;;1.92;76.91;101661.16;5070209;28;20052;-73
2022/03/03 01:44:40;;;;;;;32.42;17.08;;;;;;;1.93;77.39;101663.56;5068585;28;20398;-72
2022/03/03 01:47:15;;;;;;;35.03;17.08;;;;;;;1.91;75.52;101656.84;5068530;28;20045;-73
2022/03/03 01:49:42;;;;;;;;;;;;;;;1.91;77.25;101663.09;5070239;28;20119;-73
2022/03/03 01:52:08;;;;;;;35.72;16.08;;;;;;;1.91;76.02;101657.66;5069309;28;19924;-73
2022/03/03 01:54:35;;;;;;;31.33;17.50;;;;;;;1.84;74.32;101640.13;5069465;28;20531;-72
2022/03/03 01:57:02;;;;;;;37.13;18.00;;;;;;;1.87;73.92;101656.69;5069830;28;20050;-73
2022/03/03 01:59:30;;;;;;;32.85;17.65;;;;;;;1.84;73.85;101657.31;5069931;28;20060;-73
2022/03/03 02:01:57;;;;;;;35.90;17.02;;;;;;;1.81;74.24;101643.47;5065211;28;20493;-73
2022/03/03 02:04:24;;;;;;;32.25;16.95;;;;;;;1.79;74.39;101648.47;5066045;28;20056;-74
2022/03/03 02:06:51;;;;;;;37.72;17.85;;;;;;;1.74;74.58;101640.41;5070374;28;20056;-73
2022/03/03 02:09:17;;;;;;;35.65;17.05;;;;;;;1.72;75.54;101637.22;5069680;28;20078;-72
2022/03/03 02:11:47;;;;;;;34.38;17.38;;;;;;;1.71;75.23;101641.03;5067533;28;20044;-72
2022/03/03 02:14:14;;;;;;;35.20;15.77;;;;;;;1.68;76.41;101633.47;5068703;28;20079;-72
2022/03/03 02:16:41;;;;;;;32.88;16.60;;;;;;;1.66;75.12;101639.25;5067573;28;20052;-72
2022/03/03 02:19:14;;;;;;;31.67;16.48;;;;;;;1.63;75.11;101633.63;5065652;28;20053;-73
2022/03/03 02:21:41;;;;;;;34.22;17.25;;;;;;;1.59;74.92;101627.19;5067769;28;20072;-72
2022/03/03 02:24:07;;;;;;;34.08;17.73;;;;;;;1.58;75.69;101631.84;5066456;28;20475;-73
2022/03/03 02:26:34;;;;;;;33.83;17.45;;;;;;;1.57;77.17;101632.97;5069725;28;20080;-73
2022/03/03 02:29:03;;;;;;;36.13;18.88;;;;;;;1.52;77.06;101616.72;5069169;28;20052;-72
2022/03/03 02:31:29;;;;;;;32.55;18.02;;;;;;;1.49;76.38;101620.09;5069234;28;20135;-72
2022/03/03 02:33:57;;;;;;;36.88;18.05;;;;;;;1.49;76.13;101619.31;5074005;28;20044;-72
2022/03/03 02:36:27;;;;;;;31.90;16.77;;;;;;;1.49;78.27;101628.28;5063821;28;20143;-74
2022/03/03 02:38:56;;;;;;;32.00;16.40;;;;;;;1.49;76.48;101632.94;5069819;28;20056;-72
2022/03/03 02:41:24;;;;;;;33.28;17.20;;;;;;;1.45;76.92;101615.59;5069904;28;20055;-73
2022/03/03 02:43:51;;;;;;;32.45;17.45;;;;;;;1.43;76.93;101609.66;5068659;28;20076;-72
2022/03/03 02:46:18;;;;;;;34.25;17.02;;;;;;;1.39;78.13;101611.41;5070325;28;20409;-72
2022/03/03 02:48:45;;;;;;;34.47;17.23;;;;;;;1.37;77.91;101610.91;5066790;28;20075;-72
2022/03/03 02:51:13;;;;;;;35.67;18.13;;;;;;;1.33;77.80;101609.91;5067470;28;20076;-72
2022/03/03 02:53:39;;;;;;;33.53;17.13;;;;;;;1.32;79.10;101605.59;5069535;28;20048;-72
2022/03/03 02:56:07;;;;;;;36.80;17.60;;;;;;;1.23;79.22;101593.84;5068702;28;20160;-73
2022/03/03 02:58:33;;;;;;;32.33;17.35;;;;;;;1.28;79.31;101612.78;5069648;28;20454;-72
2022/03/03 03:01:03;;;;;;;36.00;17.95;;;;;;;1.25;78.77;101605.25;5062054;28;20080;-73
2022/03/03 03:03:31;;;;;;;34.10;17.90;;;;;;;1.22;80.13;101601.19;5063375;28;20044;-72
2022/03/03 03:05:57;;;;;;;35.05;18.25;;;;;;;1.21;81.27;101598.81;5068525;28;20084;-72
2022/03/03 03:08:24;;;;;;;38.30;18.15;;;;;;;1.15;82.28;101592.66;5067637;28;20047;-72
2022/03/03 03:10:50;;;;;;;35.72;18.10;;;;;;;1.17;82.87;101595.06;5071915;28;20135;-72
2022/03/03 03:13:17;;;;;;;32.92;17.17;;;;;;;1.16;82.21;101591.56;5067684;28;20048;-72
2022/03/03 03:15:45;;;;;;;34.40;18.20;;;;;;;1.17;82.02;101592.34;5068467;28;20052;-72
2022/03/03 03:18:13;;;;;;;37.38;17.65;;;;;;;1.14;80.20;101593.78;5069090;28;20053;-72
2022/03/03 03:20:42;;;;;;;35.65;17.42;;;;;;;1.13;81.35;101594.09;5068785;28;20048;-73
2022/03/03 03:23:10;;;;;;;35.88;16.88;;;;;;;1.11;82.18;101588.19;5068030;28;20730;-72
2022/03/03 03:25:37;;;;;;;35.03;18.50;;;;;;;1.06;82.90;101589.13;5064810;28;20086;-74
2022/03/03 03:28:05;;;;;;;34.20;18.42;;;;;;;1.04;81.35;101579.66;5068883;28;20048;-73
2022/03/03 03:30:32;;;;;;;38.90;18.45;;;;;;;1.02;83.47;101587.31;5066835;28;20072;-72
2022/03/03 03:32:58;;;;;;;35.08;18.13;;;;;;;0.99;83.51;101583.31;5064957;28;20132;-72
2022/03/03 03:35:25;;;;;;;34.75;18.73;;;;;;;0.96;82.61;101580.38;5068008;28;20406;-74
2022/03/03 03:37:52;;;;;;;37.75;18.95;;;;;;;0.94;83.86;101583.41;5068080;28;20491;-73
2022/03/03 03:40:19;;;;;;;32.72;17.73;;;;;;;0.94;83.49;101577.19;5068241;28;20045;-73
2022/03/03 03:42:46;;;;;;;40.53;18.73;;;;;;;0.95;85.06;101576.88;5066970;28;20585;-73
2022/03/03 03:45:12;;;;;;;38.80;18.70;;;;;;;0.94;84.58;101575.25;5069337;28;20057;-72
2022/03/03 03:47:40;;;;;;;33.75;18.17;;;;;;;0.93;84.10;101573.66;5067014;28;20048;-73
2022/03/03 03:50:09;;;;;;;35.38;18.25;;;;;;;0.92;85.05;101573.97;5068639;28;20113;-74
2022/03/03 03:52:37;;;;;;;42.72;18.73;;;;;;;0.90;84.15;101568.81;5066264;28;20588;-73
2022/03/03 03:55:06;;;;;;;42.70;19.60;;;;;;;0.88;82.41;101562.06;5068467;28;20048;-72
2022/03/03 03:57:33;;;;;;;37.33;18.95;;;;;;;0.85;82.69;101558.06;5067517;28;20079;-72
2022/03/03 03:59:59;;;;;;;37.47;19.02;;;;;;;0.82;85.54;101555.97;5069075;28;20094;-73
2022/03/03 04:02:26;;;;;;;36.53;18.30;;;;;;;0.83;85.20;101554.03;5067733;28;20473;-73
2022/03/03 04:04:53;;;;;;;32.97;17.70;;;;;;;0.79;85.56;101550.31;5067265;28;20054;-72
2022/03/03 04:07:19;;;;;;;39.05;19.40;;;;;;;0.79;85.75;101555.75;5066928;28;20143;-75
2022/03/03 04:09:46;;;;;;;39.95;18.05;;;;;;;0.75;85.43;101552.06;5077129;28;20155;-73
2022/03/03 04:12:12;;;;;;;33.28;17.63;;;;;;;0.72;85.83;101550.78;5069645;28;20051;-73
2022/03/03 04:14:39;;;;;;;38.85;18.80;;;;;;;0.69;84.91;101537.78;5066517;28;20539;-72
2022/03/03 04:17:07;;;;;;;35.25;18.65;;;;;;;0.67;86.14;101540.00;5068310;28;20378;-72
2022/03/03 04:19:33;;;;;;;37.03;18.23;;;;;;;0.68;86.53;101551.69;5067091;28;20072;-73
2022/03/03 04:22:00;;;;;;;41.65;20.48;;;;;;;0.62;87.39;101542.84;5067269;28;20048;-74
2022/03/03 04:24:26;;;;;;;38.25;18.35;;;;;;;0.62;86.60;101542.03;5067514;28;20052;-74
2022/03/03 04:26:54;;;;;;;51.15;20.27;;;;;;;0.56;86.20;101538.66;5068050;28;20428;-72
2022/03/03 04:29:21;;;;;;;41.60;20.10;;;;;;;0.62;86.54;101552.94;5066740;28;20080;-73
2022/03/03 04:31:48;;;;;;;37.90;19.88;;;;;;;0.64;87.80;101548.78;5064662;28;20079;-73
2022/03/03 04:34:14;;;;;;;35.92;19.38;;;;;;;0.62;87.08;101542.03;5067705;28;20052;-73
2022/03/03 04:36:41;;;;;;;38.28;19.30;;;;;;;0.59;87.00;101537.22;5067790;28;20048;-72
2022/03/03 04:39:07;;;;;;;40.15;20.52;;;;;;;0.58;88.01;101530.16;5068526;28;20148;-73
2022/03/03 04:41:34;;;;;;;41.83;20.20;;;;;;;0.63;89.48;101538.19;5067403;28;20127;-73
2022/03/03 04:44:00;;;;;;;40.35;19.00;;;;;;;0.61;88.93;101541.22;5069969;28;20080;-73
2022/03/03 04:46:27;;;;;;;39.05;19.13;;;;;;;0.62;87.12;101542.84;5072106;28;20078;-73
2022/03/03 04:48:59;;;;;;;35.47;19.67;;;;;;;0.60;87.68;101545.06;5070519;28;20052;-74
2022/03/03 04:51:26;;;;;;;37.28;19.83;;;;;;;0.56;87.60;101549.53;5070076;28;20048;-73
2022/03/03 04:53:53;;;;;;;43.35;19.48;;;;;;;0.53;88.22;101546.63;5071799;28;20052;-73
2022/03/03 04:56:19;;;;;;;39.67;20.77;;;;;;;0.46;87.91;101544.34;5071719;28;20139;-75
2022/03/03 04:58:46;;;;;;;40.90;20.02;;;;;;;0.43;89.09;101539.50;5071855;28;20767;-73
2022/03/03 05:01:12;;;;;;;39.47;18.30;;;;;;;0.43;88.19;101538.72;5071012;28;20047;-73
2022/03/03 05:03:39;;;;;;;43.58;19.88;;;;;;;0.40;86.94;101539.34;5072296;28;20053;-73
2022/03/03 05:06:05;;;;;;;38.22;19.25;;;;;;;0.40;86.38;101544.78;5072269;28;20044;-73
2022/03/03 05:08:32;;;;;;;38.00;20.30;;;;;;;0.37;87.74;101548.13;5071489;28;20078;-73
2022/03/03 05:10:59;;;;;;;42.85;20.85;;;;;;;0.35;88.63;101536.72;5082846;28;20167;-72
2022/03/03 05:13:25;;;;;;;40.45;20.05;;;;;;;0.36;86.56;101530.97;5070104;28;20048;-73
2022/03/03 05:15:52;;;;;;;40.83;20.95;;;;;;;0.35;87.34;101528.56;5069854;28;20555;-73
2022/03/03 05:18:18;;;;;;;39.65;18.58;;;;;;;0.32;88.42;101526.47;5071584;28;20523;-73
2022/03/03 05:20:45;;;;;;;40.40;20.77;;;;;;;0.29;88.09;101525.16;5072011;28;20080;-73
2022/03/03 05:23:11;;;;;;;45.05;20.67;;;;;;;0.29;88.06;101525.16;5069250;28;20373;-73
2022/03/03 05:25:38;;;;;;;38.40;20.20;;;;;;;0.23;88.09;101518.22;5071737;28;20109;-73
2022/03/03 05:28:04;;;;;;;40.47;20.92;;;;;;;0.18;88.10;101526.53;5070375;28;20448;-73
2022/03/03 05:30:31;;;;;;;50.45;25.80;;;;;;;0.18;88.39;101526.53;5072327;28;20477;-72
2022/03/03 05:32:58;;;;;;;46.20;22.33;;;;;;;0.13;89.36;101525.84;5066950;28;20079;-73
2022/03/03 05:35:24;;;;;;;40.97;21.45;;;;;;;0.15;88.92;101526.31;5070207;28;20072;-73
2022/03/03 05:37:51;;;;;;;44.05;23.40;;;;;;;0.12;88.95;101527.75;5071402;28;20168;-73
2022/03/03 05:40:18;;;;;;;44.15;23.42;;;;;;;0.09;89.76;101533.81;5070072;28;20131;-74
2022/03/03 05:42:44;;;;;;;40.13;22.45;;;;;;;0.03;89.39;101524.97;5070234;28;20090;-73
2022/03/03 05:45:11;;;;;;;41.97;22.25;;;;;;;0.03;90.17;101524.97;5070337;28;20103;-72
2022/03/03 05:47:39;;;;;;;39.90;21.38;;;;;;;0.03;90.55;101527.69;5071798;28;20131;-73
2022/03/03 05:50:06;;;;;;;49.50;23.17;;;;;;;0.01;91.35;101518.22;5071141;28;20139;-73
2022/03/03 05:52:33;;;;;;;48.33;23.08;;;;;;;0.03;91.28;101524.97;5069106;28;20060;-74
2022/03/03 05:55:00;;;;;;;37.38;20.52;;;;;;;0.06;90.83;101522.75;5070791;28;20127;-73
2022/03/03 05:57:34;;;;;;;36.70;19.42;;;;;;;0.04;90.29;101525.78;5070404;28;20135;-73
2022/03/03 06:00:07;;;;;;;36.47;19.90;;;;;;;0.00;92.08;101528.28;5071138;28;20048;-75
2022/03/03 06:02:34;;;;;;;38.60;19.88;;;;;;;0.01;91.21;101534.56;5070123;28;20045;-73
2022/03/03 06:05:03;;;;;;;35.30;18.20;;;;;;;0.01;90.80;101537.28;5070979;28;20056;-73
2022/03/03 06:07:36;;;;;;;40.35;20.42;;;;;;;-0.03;91.43;101528.91;5064968;28;20528;-73
2022/03/03 06:10:04;;;;;;;43.15;22.70;;;;;;;-0.04;92.13;101523.75;5075448;28;20066;-73
2022/03/03 06:12:45;;;;;;;45.47;23.65;;;;;;;-0.04;92.37;101535.47;5068750;28;20044;-73
2022/03/03 06:15:13;;;;;;;45.75;21.50;;;;;;;-0.05;92.22;101522.97;5066619;28;20147;-73
2022/03/03 06:17:42;;;;;;;46.30;21.55;;;;;;;-0.06;93.53;101524.06;5069439;28;20136;-73
2022/03/03 06:20:10;;;;;;;40.55;21.67;;;;;;;-0.03;94.07;101520.75;5070507;28;20470;-73
2022/03/03 06:22:36;;;;;;;41.28;21.83;;;;;;;0.01;95.00;101529.09;5068907;28;20710;-72
2022/03/03 06:25:05;;;;;;;43.03;22.30;;;;;;;0.03;94.48;101535.84;5069349;28;20058;-73
2022/03/03 06:27:32;;;;;;;53.65;24.20;;;;;;;0.00;93.43;101525.56;5070357;28;20048;-73
2022/03/03 06:29:59;;;;;;;48.80;23.25;;;;;;;0.01;94.47;101532.63;5070284;28;20119;-74
2022/03/03 06:32:26;;;;;;;46.22;22.83;;;;;;;0.03;94.67;101519.53;5064473;28;20143;-72
2022/03/03 06:34:53;;;;;;;44.10;21.90;;;;;;;0.01;94.08;101519.00;5066864;28;20049;-75
2022/03/03 06:37:19;;;;;;;42.22;21.40;;;;;;;0.05;95.53;101521.94;5069118;28;20428;-74
2022/03/03 06:39:46;;;;;;;38.22;19.77;;;;;;;0.11;95.38;101525.34;5067703;28;20870;-75
2022/03/03 06:42:13;;;;;;;39.80;19.13;;;;;;;0.12;93.88;101518.78;5069874;28;20079;-74
2022/03/03 06:44:39;;;;;;;41.15;21.30;;;;;;;0.14;93.46;101519.28;5069611;28;20508;-74
2022/03/03 06:47:06;;;;;;;40.83;21.50;;;;;;;0.14;93.50;101513.84;5081146;28;20044;-74
2022/03/03 06:49:33;;;;;;;36.05;19.27;;;;;;;0.21;95.70;101516.94;5069631;28;20390;-74
2022/03/03 06:52:02;;;;;;;42.63;22.83;;;;;;;0.25;94.73;101526.09;5068910;28;20582;-74
2022/03/03 06:54:32;;;;;;;47.13;25.25;;;;;;;0.29;94.88;101527.88;5070249;28;20048;-74
2022/03/03 06:56:58;;;;;;;50.10;22.83;;;;;;;0.31;94.99;101522.94;5068853;28;20051;-75
2022/03/03 06:59:28;;;;;;;46.90;22.88;;;;;;;0.40;95.08;101523.00;5071152;28;20139;-74
2022/03/03 07:01:56;;;;;;;52.20;22.15;;;;;;;0.47;94.84;101528.81;5069426;28;20036;-74
2022/03/03 07:04:23;;;;;;;54.42;25.30;;;;;;;0.47;93.26;101528.81;5066767;28;20123;-75
2022/03/03 07:06:50;;;;;;;45.78;24.77;;;;;;;0.48;93.52;101524.97;5069385;28;20080;-74
2022/03/03 07:09:19;;;;;;;48.40;24.33;;;;;;;0.47;94.15;101535.06;5074073;28;20052;-74
2022/03/03 07:11:47;;;;;;;45.50;22.58;;;;;;;0.52;93.27;101539.56;5074345;28;20139;-74
2022/03/03 07:14:14;;;;;;;47.13;22.98;;;;;;;0.56;93.49;101537.84;5071641;28;20132;-75
2022/03/03 07:16:42;;;;;;;41.67;20.85;;;;;;;0.61;94.11;101546.66;5067130;28;20048;-74
2022/03/03 07:19:34;;;;;;;39.05;19.75;;;;;;;0.71;93.78;101556.53;5073748;28;20139;-74
2022/03/03 07:22:46;;;;;;;38.33;20.08;;;;;;;0.80;93.46;101562.81;5066237;28;20163;-75
2022/03/03 07:25:14;;;;;;;41.10;20.70;;;;;;;0.87;93.55;101553.09;5067507;28;20115;-77
2022/03/03 07:27:44;;;;;;;41.47;20.83;;;;;;;0.96;92.70;101550.41;5068126;28;20044;-76
2022/03/03 07:30:13;;;;;;;38.88;21.30;;;;;;;1.08;92.07;101553.38;5067842;28;20422;-75
2022/03/03 07:32:53;;;;;;;43.90;20.95;;;;;;;1.20;91.82;101561.75;5068561;28;20036;-74
2022/03/03 07:35:25;;;;;;;41.83;20.88;;;;;;;1.28;91.37;101566.44;5061465;28;20056;-74
2022/03/03 07:37:58;;;;;;;39.97;19.98;;;;;;;1.38;91.20;101563.44;5069735;28;20064;-75
2022/03/03 07:40:30;;;;;;;43.88;21.77;;;;;;;1.47;90.63;101566.97;5068253;28;20056;-76
2022/03/03 07:42:59;;;;;;;39.45;21.45;;;;;;;1.56;89.97;101560.44;5068350;28;20591;-75
2022/03/03 07:45:27;;;;;;;45.25;21.63;;;;;;;1.64;89.40;101564.31;5066346;28;20508;-75
2022/03/03 07:47:55;;;;;;;36.45;18.98;;;;;;;1.73;88.97;101562.41;5066535;28;20135;-77
2022/03/03 07:50:23;;;;;;;39.28;18.88;;;;;;;1.84;88.78;101564.53;5067598;28;20151;-75
2022/03/03 07:52:52;;;;;;;38.45;18.77;;;;;;;1.92;88.79;101566.44;5081741;28;20066;-75
2022/03/03 07:55:19;;;;;;;38.92;19.33;;;;;;;2.00;88.05;101573.06;5066488;28;20048;-75
2022/03/03 07:58:12;;;;;;;35.17;17.52;;;;;;;2.02;87.28;101557.97;5067009;28;20052;-75
2022/03/03 08:00:44;;;;;;;40.05;19.10;;;;;;;2.21;86.86;101568.56;5067094;28;20056;-75
2022/03/03 08:03:13;;;;;;;35.45;16.90;;;;;;;2.30;86.11;101577.56;5066572;28;20051;-75
2022/03/03 08:05:42;;;;;;;39.80;17.95;;;;;;;2.35;85.83;101570.03;5068366;28;20420;-75
2022/03/03 08:08:12;;;;;;;35.75;17.63;;;;;;;2.46;84.89;101574.03;5067275;28;20443;-74
2022/03/03 08:10:41;;;;;;;37.00;17.90;;;;;;;2.56;84.44;101575.63;5069907;28;20139;-74
2022/03/03 08:13:10;;;;;;;38.22;17.92;;;;;;;2.61;83.76;101572.75;5068137;28;20048;-75
2022/03/03 08:15:38;;;;;;;32.85;16.73;;;;;;;2.70;83.64;101574.31;5069651;28;20167;-75
2022/03/03 08:18:05;;;;;;;31.45;16.05;;;;;;;2.72;83.63;101569.34;5067054;28;20074;-75
2022/03/03 08:20:34;;;;;;;33.95;16.35;;;;;;;2.89;82.86;101579.44;5068230;28;20556;-74
2022/03/03 08:23:02;;;;;;;36.35;17.45;;;;;;;2.99;82.05;101584.56;5066289;28;20537;-74
2022/03/03 08:25:29;;;;;;;33.33;16.02;;;;;;;3.08;81.86;101587.25;5067780;28;20052;-74
2022/03/03 08:27:56;;;;;;;33.92;16.58;;;;;;;3.18;81.46;101575.97;5068967;28;20044;-75
2022/03/03 08:30:23;;;;;;;36.42;18.00;;;;;;;3.28;80.30;101575.63;5068905;28;20049;-74
2022/03/03 08:32:56;;;;;;;30.75;16.15;;;;;;;3.41;79.43;101580.06;5068768;28;20079;-74
2022/03/03 08:35:26;;;;;;;30.80;15.52;;;;;;;3.48;78.60;101572.94;5067430;28;20143;-74
2022/03/03 08:38:04;;;;;;;33.88;16.13;;;;;;;3.63;78.34;101574.31;5065015;28;20048;-74
2022/03/03 08:40:31;;;;;;;31.02;16.08;;;;;;;3.73;76.93;101582.16;5060319;28;20192;-75
2022/03/03 08:43:04;;;;;;;29.92;15.50;;;;;;;3.82;75.26;101575.53;5067773;28;20084;-75
2022/03/03 08:45:35;;;;;;;33.95;15.85;;;;;;;3.89;74.39;101562.09;5068213;28;20143;-75
2022/03/03 08:48:08;;;;;;;38.30;15.27;;;;;;;4.06;73.75;101570.19;5067767;28;20135;-74
2022/03/03 08:50:37;;;;;;;35.75;14.07;;;;;;;4.17;72.81;101563.19;5067199;28;20052;-74
2022/03/03 08:53:06;;;;;;;36.60;16.30;;;;;;;4.22;71.99;101549.28;5067968;28;20514;-75
2022/03/03 08:55:35;;;;;;;33.70;16.67;;;;;;;4.39;71.75;101549.13;5066462;28;20044;-75
2022/03/03 08:58:02;;;;;;;35.03;16.10;;;;;;;4.55;70.91;101552.06;5059487;28;20075;-75
2022/03/03 09:00:30;;;;;;;35.97;18.08;;;;;;;4.65;69.78;101543.41;5067902;28;20056;-76
2022/03/03 09:02:59;;;;;;;29.30;15.07;;;;;;;4.81;69.84;101542.44;5067867;28;20558;-76
2022/03/03 09:05:26;;;;;;;41.65;16.90;;;;;;;4.97;68.33;101550.81;5067929;28;20072;-71
2022/03/03 09:07:52;;;;;;;35.38;14.73;;;;;;;5.14;68.84;101550.63;5065942;28;20049;-73
2022/03/03 09:10:19;;;;;;;29.48;14.00;;;;;;;5.30;67.67;101544.13;5071371;28;20127;-76
2022/03/03 09:12:46;;;;;;;35.83;14.40;;;;;;;5.46;66.16;101554.44;5061610;28;20075;-74
2022/03/03 09:15:15;;;;;;;33.20;14.63;;;;;;;5.59;64.38;101556.03;5060022;28;20161;-75
2022/03/03 09:17:43;;;;;;;28.70;14.98;;;;;;;5.72;63.69;101560.38;5058770;28;20064;-75
2022/03/03 09:20:13;;;;;;;30.92;14.93;;;;;;;5.83;63.02;101547.78;5057925;28;20159;-76
2022/03/03 09:22:42;;;;;;;30.42;14.45;;;;;;;5.95;62.62;101558.78;5046324;28;20140;-76
2022/03/03 09:25:10;;;;;;;32.08;15.85;;;;;;;6.08;62.52;101552.13;5058257;28;20639;-75
2022/03/03 09:27:38;;;;;;;31.95;16.50;;;;;;;6.24;62.13;101556.53;5050367;28;20056;-75
2022/03/03 09:30:05;;;;;;;31.73;16.52;;;;;;;6.36;60.63;101552.94;5055402;28;20116;-76
2022/03/03 09:32:34;;;;;;;32.65;13.70;;;;;;;6.47;60.12;101551.31;5061518;28;20122;-75
2022/03/03 09:35:00;;;;;;;31.67;16.05;;;;;;;6.61;59.81;101546.22;5057744;28;20054;-75
2022/03/03 09:37:28;;;;;;;26.52;12.77;;;;;;;6.76;59.14;101537.19;5066530;28;20137;-75
2022/03/03 09:39:54;;;;;;;31.70;15.88;;;;;;;6.88;58.51;101535.19;5065061;28;20145;-75
2022/03/03 09:42:21;;;;;;;26.38;14.00;;;;;;;7.07;57.67;101540.00;5061111;28;20393;-75
2022/03/03 09:44:47;;;;;;;30.40;16.30;;;;;;;7.22;57.38;101530.94;5059311;28;20743;-75
2022/03/03 09:47:17;;;;;;;30.88;16.30;;;;;;;7.38;55.78;101520.72;5063444;28;20094;-76
2022/03/03 09:49:44;;;;;;;27.67;11.68;;;;;;;7.52;54.48;101523.81;5061529;28;20041;-76
2022/03/03 09:52:14;;;;;;;33.17;15.82;;;;;;;7.66;55.17;101526.91;5059881;28;20076;-75
2022/03/03 09:54:48;;;;;;;28.17;13.32;;;;;;;7.86;55.84;101520.28;5062345;28;20049;-74
2022/03/03 09:57:17;;;;;;;30.20;14.57;;;;;;;8.06;53.62;101521.16;5058933;28;20072;-76
2022/03/03 09:59:44;;;;;;;25.80;10.93;;;;;;;8.28;53.25;101521.25;5067161;28;20052;-74
2022/03/03 10:02:12;;;;;;;27.85;13.98;;;;;;;8.44;50.50;101521.97;5062561;28;20643;-75
2022/03/03 10:04:39;;;;;;;25.92;13.73;;;;;;;8.64;50.97;101520.00;5063910;28;20485;-72
2022/03/03 10:07:08;;;;;;;26.67;14.27;;;;;;;8.82;50.57;101521.13;5063351;28;20805;-74
2022/03/03 10:12:22;;;;;;;29.92;13.27;;;;;;;9.15;49.03;101515.84;5068831;28;20076;-74
2022/03/03 10:14:49;;;;;;;24.83;12.80;;;;;;;9.27;48.25;101524.72;5061456;28;20060;-73
2022/03/03 10:17:16;;;;;;;24.50;13.07;;;;;;;9.39;48.05;101527.28;5061094;28;20086;-75
2022/03/03 10:19:56;;;;;;;27.70;13.77;;;;;;;9.48;47.10;101524.25;5052833;28;20054;-74
2022/03/03 10:22:44;;;;;;;25.20;12.85;;;;;;;9.60;47.62;101511.06;5056742;28;20049;-73
2022/03/03 10:25:14;;;;;;;25.92;12.90;;;;;;;9.75;47.09;101521.16;5058950;28;20159;-75
2022/03/03 10:27:41;;;;;;;26.65;13.45;;;;;;;9.87;47.07;101511.84;5060715;28;20117;-75
2022/03/03 10:30:09;;;;;;;31.20;14.68;;;;;;;9.94;46.89;101511.94;5058534;28;20655;-75
2022/03/03 10:32:38;;;;;;;28.92;15.10;;;;;;;9.99;46.97;101506.09;5062687;28;20173;-75
2022/03/03 10:35:16;;;;;;;28.88;14.98;;;;;;;10.15;46.69;101512.25;5060216;28;20049;-74
2022/03/03 10:37:45;;;;;;;28.10;14.02;;;;;;;10.32;46.44;101520.78;5057681;28;20060;-75
2022/03/03 10:40:14;;;;;;;29.30;16.25;;;;;;;10.40;45.51;101516.94;5055806;28;20070;-74
2022/03/03 10:42:50;;;;;;;29.55;14.70;;;;;;;10.47;45.88;101514.25;5060849;28;20504;-74
2022/03/03 10:45:19;;;;;;;33.03;15.13;;;;;;;10.71;45.96;101512.16;5062706;28;20048;-74
2022/03/03 10:48:00;;;;;;;30.05;14.95;;;;;;;10.83;44.79;101520.97;5069070;28;20059;-75
2022/03/03 10:50:44;;;;;;;27.65;14.15;;;;;;;10.93;44.66;101525.06;5069576;28;20060;-76
2022/03/03 10:53:10;;;;;;;15.18;6.93;;;;;;;11.06;43.78;101518.03;5070047;28;20141;-74
2022/03/03 10:55:37;;;;;;;27.80;14.02;;;;;;;11.12;42.88;101516.50;5061877;28;20069;-73
2022/03/03 10:58:04;;;;;;;24.63;10.93;;;;;;;11.28;42.78;101520.66;5068719;28;20135;-75
2022/03/03 11:00:34;;;;;;;23.23;12.23;;;;;;;11.33;42.65;101517.50;5069896;28;20644;-73
2022/03/03 11:03:03;;;;;;;28.38;13.77;;;;;;;11.42;43.56;101515.22;5067898;28;20044;-73
2022/03/03 11:05:31;;;;;;;24.05;12.43;;;;;;;11.64;43.41;101516.22;5069357;28;20135;-74
2022/03/03 11:07:58;;;;;;;25.23;12.43;;;;;;;11.89;43.07;101517.16;5069840;28;20144;-74
2022/03/03 11:10:29;;;;;;;24.83;13.82;;;;;;;12.08;42.48;101516.88;5073397;28;20048;-75
2022/03/03 11:12:56;;;;;;;25.80;13.45;;;;;;;12.50;41.32;101509.53;5069420;28;20139;-74
2022/03/03 11:15:24;;;;;;;31.85;15.07;;;;;;;13.51;40.11;101512.91;5069333;28;20475;-76
2022/03/03 11:17:52;;;;;;;29.27;13.52;;;;;;;14.35;38.06;101509.97;5069676;28;20048;-75
2022/03/03 11:20:20;;;;;;;26.83;15.07;;;;;;;14.82;37.03;101514.91;5073049;28;20052;-76
2022/03/03 11:22:52;;;;;;;27.98;14.18;;;;;;;15.33;36.09;101524.09;5071521;28;20052;-76
2022/03/03 11:25:28;;;;;;;27.25;13.38;;;;;;;15.91;34.79;101514.84;5067734;28;20048;-76